Time;durP1;ratioP1;P1;durP2;ratioP2;P2;SDS_P1;SDS_P2;PMS_P1;PMS_P2;Temp;Humidity;BMP_temperature;BMP_pressure;BME280_temperature;BME280_humidity;BME280_pressure;Samples;Min_cycle;Max_cycle;Signal;HPM_P1;HPM_P2
2023/06/26 00:00:11;;;;;;;17.05;15.32;;;;;;;;;;5071394;28;20197;-47
2023/06/26 00:02:37;;;;;;;20.02;14.80;;;;;;;21.39;96.43;94470.53;5072576;28;20248;-46
2023/06/26 00:05:05;;;;;;;19.35;15.30;;;;;;;21.36;96.59;94470.94;5070528;28;20196;-46
2023/06/26 00:07:33;;;;;;;17.45;14.93;;;;;;;21.21;96.83;94441.81;5070684;28;20673;-47
2023/06/26 00:10:00;;;;;;;16.00;14.07;;;;;;;21.38;96.78;94465.53;5069997;28;20201;-46
2023/06/26 00:12:27;;;;;;;17.58;14.38;;;;;;;21.36;96.90;94467.53;5069889;28;20202;-46
2023/06/26 00:14:55;;;;;;;15.82;13.90;;;;;;;21.32;96.91;94469.75;5070314;28;20194;-43
2023/06/26 00:17:22;;;;;;;14.13;12.18;;;;;;;21.35;96.80;94468.56;5071511;28;20664;-45
2023/06/26 00:19:49;;;;;;;17.85;13.68;;;;;;;21.32;96.43;94469.75;5071927;28;20256;-45
2023/06/26 00:22:16;;;;;;;16.67;13.65;;;;;;;21.32;96.80;94471.56;5073447;28;20651;-47
2023/06/26 00:24:44;;;;;;;15.80;13.65;;;;;;;21.25;96.67;94461.19;5071461;28;20608;-45
2023/06/26 00:27:11;;;;;;;16.48;12.40;;;;;;;21.25;97.05;94461.97;5069782;28;20545;-46
2023/06/26 00:29:39;;;;;;;15.82;13.27;;;;;;;21.22;97.58;94462.38;5070030;28;20278;-45
2023/06/26 00:32:07;;;;;;;15.40;13.13;;;;;;;21.01;97.91;94426.31;5069615;28;20540;-44
2023/06/26 00:34:34;;;;;;;14.32;12.93;;;;;;;21.21;97.90;94462.59;5069711;28;20183;-45
2023/06/26 00:37:01;;;;;;;13.50;12.05;;;;;;;21.21;97.95;94460.81;5069486;28;20537;-45
2023/06/26 00:39:28;;;;;;;14.55;12.52;;;;;;;21.18;97.47;94456.00;5069419;28;20714;-44
2023/06/26 00:41:54;;;;;;;14.55;12.30;;;;;;;21.16;97.70;94465.03;5069728;28;20214;-44
2023/06/26 00:44:21;;;;;;;15.10;12.13;;;;;;;21.14;97.51;94452.22;5069581;28;20186;-45
2023/06/26 00:46:48;;;;;;;14.23;12.10;;;;;;;20.93;97.94;94427.34;5069320;28;20191;-45
2023/06/26 00:49:17;;;;;;;15.38;12.30;;;;;;;21.12;97.74;94456.84;5069864;28;20538;-45
2023/06/26 00:51:44;;;;;;;12.95;11.50;;;;;;;21.09;98.12;94456.47;5069143;28;20198;-44
2023/06/26 00:54:11;;;;;;;13.85;11.38;;;;;;;21.09;97.75;94446.06;5069280;28;20642;-45
2023/06/26 00:56:38;;;;;;;13.38;10.52;;;;;;;21.10;98.13;94445.84;5069021;28;20661;-45
2023/06/26 00:59:05;;;;;;;13.52;10.63;;;;;;;21.11;97.83;94444.84;5069478;28;20577;-46
2023/06/26 01:01:32;;;;;;;11.70;10.60;;;;;;;21.09;97.95;94446.06;5069409;28;20218;-44
2023/06/26 01:03:58;;;;;;;12.68;11.40;;;;;;;21.06;98.05;94439.47;5069532;28;20197;-45
2023/06/26 01:06:31;;;;;;;10.90;9.45;;;;;;;21.07;98.20;94440.25;5069391;28;20649;-45
2023/06/26 01:08:59;;;;;;;12.30;10.40;;;;;;;21.04;97.91;94434.50;5069256;28;20277;-45
2023/06/26 01:11:25;;;;;;;11.65;10.48;;;;;;;21.05;98.27;94436.06;5069265;28;20662;-45
2023/06/26 01:13:53;;;;;;;11.95;8.90;;;;;;;21.07;97.96;94425.47;5069228;28;20218;-45
2023/06/26 01:16:21;;;;;;;12.05;9.48;;;;;;;21.05;98.09;94430.88;5069451;28;20265;-44
2023/06/26 01:18:49;;;;;;;11.60;9.80;;;;;;;20.93;98.34;94413.53;5069352;28;20197;-46
2023/06/26 01:21:16;;;;;;;12.35;11.07;;;;;;;20.92;98.66;94420.53;5068929;28;20190;-46
2023/06/26 01:23:59;;;;;;;11.52;10.32;;;;;;;20.91;98.57;94415.56;5069163;28;20220;-45
2023/06/26 01:26:31;;;;;;;10.95;9.85;;;;;;;20.47;98.67;94360.78;5069981;28;20221;-47
2023/06/26 01:29:00;;;;;;;16.60;9.98;;;;;;;20.76;98.98;94424.41;5069006;28;20222;-45
2023/06/26 01:31:30;;;;;;;12.02;10.80;;;;;;;20.56;99.43;94397.75;5069239;28;20197;-44
2023/06/26 01:33:58;;;;;;;13.07;10.80;;;;;;;20.66;99.92;94418.06;5068849;28;20641;-46
2023/06/26 01:36:25;;;;;;;11.95;10.75;;;;;;;20.59;99.97;94406.91;5069055;28;20675;-46
2023/06/26 01:38:52;;;;;;;15.77;10.32;;;;;;;20.59;100.00;94412.09;5072133;28;20186;-46
2023/06/26 01:41:19;;;;;;;11.68;10.48;;;;;;;20.56;100.00;94412.53;5073313;28;20187;-45
2023/06/26 01:44:02;;;;;;;12.23;10.82;;;;;;;20.56;100.00;94413.31;5072490;28;20194;-45
2023/06/26 01:46:48;;;;;;;13.50;11.18;;;;;;;20.54;99.94;94413.50;5072990;28;20189;-44
2023/06/26 01:49:22;;;;;;;11.43;10.23;;;;;;;20.52;99.98;94415.53;5072933;28;20198;-46
2023/06/26 01:51:59;;;;;;;14.82;11.68;;;;;;;20.53;99.83;94406.72;5072709;28;20205;-45
2023/06/26 01:54:30;;;;;;;12.55;10.63;;;;;;;20.56;99.61;94409.94;5073201;28;20346;-46
2023/06/26 01:56:59;;;;;;;13.48;10.98;;;;;;;20.56;100.00;94399.53;5072597;28;20182;-45
2023/06/26 01:59:32;;;;;;;14.20;11.70;;;;;;;20.59;99.73;94407.69;5075445;28;20719;-45
2023/06/26 02:02:01;;;;;;;13.27;10.68;;;;;;;20.63;99.26;94408.88;5073910;28;20225;-46
2023/06/26 02:04:28;;;;;;;12.80;10.85;;;;;;;20.58;99.18;94410.50;5072832;28;20197;-44
2023/06/26 02:06:56;;;;;;;14.40;10.75;;;;;;;20.55;99.08;94403.91;5072283;28;20186;-47
2023/06/26 02:09:23;;;;;;;12.65;10.93;;;;;;;20.53;99.19;94403.34;5072455;28;20187;-45
2023/06/26 02:11:50;;;;;;;13.32;11.93;;;;;;;20.51;99.24;94400.16;5071923;28;20202;-44
2023/06/26 02:14:17;;;;;;;16.58;11.55;;;;;;;20.47;98.83;94404.94;5072310;28;20279;-45
2023/06/26 02:16:45;;;;;;;14.30;10.88;;;;;;;20.42;99.03;94402.16;5072273;28;20190;-46
2023/06/26 02:19:11;;;;;;;13.15;11.02;;;;;;;20.38;99.07;94393.19;5071856;28;20187;-44
2023/06/26 02:21:38;;;;;;;13.80;12.23;;;;;;;20.36;99.14;94407.38;5072265;28;20190;-47
2023/06/26 02:24:06;;;;;;;14.38;10.85;;;;;;;20.33;99.40;94397.38;5072508;28;20224;-46
2023/06/26 02:26:33;;;;;;;13.65;11.43;;;;;;;20.30;99.20;94398.59;5072056;28;20616;-44
2023/06/26 02:28:59;;;;;;;16.33;14.15;;;;;;;20.30;99.22;94402.00;5071921;28;20194;-44
2023/06/26 02:31:26;;;;;;;14.82;13.27;;;;;;;20.31;99.26;94407.97;5071867;28;20198;-46
2023/06/26 02:33:54;;;;;;;15.05;13.55;;;;;;;20.27;99.50;94405.00;5071935;28;20221;-43
2023/06/26 02:36:22;;;;;;;15.32;13.38;;;;;;;20.27;99.64;94409.38;5072527;28;20190;-47
2023/06/26 02:38:48;;;;;;;15.13;13.43;;;;;;;20.23;99.84;94403.00;5071661;28;20201;-45
2023/06/26 02:41:15;;;;;;;13.15;11.82;;;;;;;20.23;99.85;94411.59;5072162;28;20194;-46
2023/06/26 02:43:42;;;;;;;14.27;12.88;;;;;;;20.26;99.95;94406.00;5071275;28;20222;-46
2023/06/26 02:46:09;;;;;;;13.95;12.48;;;;;;;20.25;99.83;94407.00;5071981;28;20190;-45
2023/06/26 02:48:36;;;;;;;15.05;13.23;;;;;;;20.24;99.75;94405.38;5071471;28;20244;-46
2023/06/26 02:51:04;;;;;;;13.73;12.07;;;;;;;20.24;99.97;94415.78;5071726;28;20190;-45
2023/06/26 02:53:32;;;;;;;15.02;13.23;;;;;;;20.24;100.00;94410.59;5071558;28;20252;-45
2023/06/26 02:55:58;;;;;;;14.95;13.55;;;;;;;20.27;99.67;94414.59;5072235;28;20198;-46
2023/06/26 02:58:25;;;;;;;15.70;13.63;;;;;;;20.21;99.91;94402.44;5071554;28;20642;-47
2023/06/26 03:00:53;;;;;;;15.23;13.35;;;;;;;20.22;100.00;94409.22;5070967;28;20183;-44
2023/06/26 03:03:20;;;;;;;14.75;13.25;;;;;;;20.20;99.81;94406.78;5071227;28;20218;-45
2023/06/26 03:05:47;;;;;;;16.92;13.75;;;;;;;20.04;99.63;94389.88;5071139;28;20649;-45
2023/06/26 03:08:16;;;;;;;14.82;13.25;;;;;;;20.16;99.53;94407.41;5071300;28;20194;-45
2023/06/26 03:10:42;;;;;;;16.35;13.80;;;;;;;20.17;99.39;94414.22;5070955;28;20194;-45
2023/06/26 03:13:09;;;;;;;16.38;14.40;;;;;;;20.15;99.56;94417.00;5071406;28;20251;-46
2023/06/26 03:15:36;;;;;;;15.55;14.05;;;;;;;20.14;99.69;94420.59;5071073;28;20201;-46
2023/06/26 03:18:03;;;;;;;16.92;15.23;;;;;;;20.12;99.71;94412.25;5071507;28;20272;-45
2023/06/26 03:20:30;;;;;;;18.00;14.35;;;;;;;20.12;99.44;94417.44;5070806;28;20236;-45
2023/06/26 03:22:56;;;;;;;15.90;14.40;;;;;;;20.14;99.28;94417.22;5071030;28;20545;-45
2023/06/26 03:25:24;;;;;;;20.02;14.75;;;;;;;20.15;99.15;94417.00;5070840;28;20562;-45
2023/06/26 03:27:55;;;;;;;26.42;16.13;;;;;;;20.17;99.32;94412.41;5071278;28;20847;-50
2023/06/26 03:30:21;;;;;;;21.17;14.95;;;;;;;20.18;99.08;94416.59;5071482;28;20194;-46
2023/06/26 03:32:48;;;;;;;16.45;14.85;;;;;;;20.20;99.18;94412.00;5070913;28;20671;-47
2023/06/26 03:35:15;;;;;;;19.50;14.32;;;;;;;20.22;99.13;94429.97;5071191;28;20190;-45
2023/06/26 03:37:42;;;;;;;18.25;15.52;;;;;;;20.16;98.86;94407.41;5070888;28;20198;-46
2023/06/26 03:40:10;;;;;;;18.90;15.70;;;;;;;20.34;98.62;94417.97;5071391;28;20196;-45
2023/06/26 03:42:38;;;;;;;20.55;14.98;;;;;;;20.27;98.05;94399.78;5070761;28;20210;-47
2023/06/26 03:45:06;;;;;;;16.88;15.20;;;;;;;20.33;98.52;94418.16;5071421;28;20187;-43
2023/06/26 03:47:33;;;;;;;16.63;14.77;;;;;;;20.36;98.67;94418.56;5071155;28;20273;-45
2023/06/26 03:50:00;;;;;;;16.83;15.13;;;;;;;20.38;98.43;94419.16;5070983;28;20195;-45
2023/06/26 03:52:26;;;;;;;16.52;14.60;;;;;;;20.42;98.42;94422.13;5070798;28;20179;-45
2023/06/26 03:54:53;;;;;;;16.27;14.45;;;;;;;20.45;98.00;94414.72;5071265;28;20209;-50
2023/06/26 03:57:20;;;;;;;15.85;14.23;;;;;;;20.47;97.95;94417.13;5075592;28;20190;-47
2023/06/26 03:59:48;;;;;;;16.80;15.10;;;;;;;20.51;97.80;94421.75;5070492;28;20194;-46
2023/06/26 04:02:15;;;;;;;17.17;14.82;;;;;;;20.58;97.69;94419.09;5070530;28;20654;-47
2023/06/26 04:04:42;;;;;;;15.07;13.68;;;;;;;20.66;97.47;94420.69;5070825;28;20191;-46
2023/06/26 04:07:09;;;;;;;17.25;14.02;;;;;;;20.80;96.50;94419.59;5070766;28;20187;-49
2023/06/26 04:09:36;;;;;;;15.65;14.15;;;;;;;20.90;96.25;94414.78;5071020;28;20189;-45
2023/06/26 04:12:03;;;;;;;16.77;15.10;;;;;;;21.03;95.50;94413.91;5072162;28;20190;-47
2023/06/26 04:14:30;;;;;;;16.15;14.50;;;;;;;21.15;94.65;94420.00;5071454;28;20190;-46
2023/06/26 04:17:00;;;;;;;16.05;13.45;;;;;;;21.26;94.00;94419.34;5070542;28;20192;-46
2023/06/26 04:19:26;;;;;;;15.50;13.93;;;;;;;21.29;93.48;94418.16;5070154;28;20186;-47
2023/06/26 04:21:53;;;;;;;15.43;13.85;;;;;;;21.39;93.07;94415.91;5070261;28;20187;-46
2023/06/26 04:24:20;;;;;;;18.92;13.57;;;;;;;21.44;92.23;94420.47;5070952;28;20240;-47
2023/06/26 04:26:47;;;;;;;15.93;14.15;;;;;;;21.69;91.60;94428.28;5071766;28;20709;-46
2023/06/26 04:29:14;;;;;;;14.10;12.68;;;;;;;21.33;90.33;94338.72;5074222;28;20194;-46
2023/06/26 04:31:41;;;;;;;14.27;12.82;;;;;;;22.22;89.01;94431.22;5072976;28;20224;-45
2023/06/26 04:34:09;;;;;;;14.02;12.70;;;;;;;22.48;87.69;94426.75;5072366;28;20194;-45
2023/06/26 04:36:38;;;;;;;14.40;12.77;;;;;;;22.64;87.05;94427.97;5071717;28;20178;-47
2023/06/26 04:39:06;;;;;;;14.30;12.93;;;;;;;22.84;85.51;94436.38;5071000;28;20217;-46
2023/06/26 04:41:32;;;;;;;13.52;12.15;;;;;;;22.92;85.05;94430.84;5071484;28;20186;-45
2023/06/26 04:43:59;;;;;;;14.10;12.70;;;;;;;23.06;84.82;94438.50;5070903;28;20712;-46
2023/06/26 04:46:27;;;;;;;14.52;12.00;;;;;;;23.19;84.38;94433.91;5070783;28;20186;-46
2023/06/26 04:48:54;;;;;;;17.38;12.60;;;;;;;23.39;83.76;94433.63;5071020;28;20187;-47
2023/06/26 04:51:22;;;;;;;15.45;11.75;;;;;;;23.58;82.55;94438.78;5070293;28;20561;-46
2023/06/26 04:53:49;;;;;;;17.70;12.25;;;;;;;23.79;81.68;94438.25;5070216;28;20197;-47
2023/06/26 04:56:16;;;;;;;16.45;12.52;;;;;;;23.96;80.88;94438.38;5070026;28;20182;-46
2023/06/26 04:58:43;;;;;;;12.93;11.38;;;;;;;24.07;80.01;94432.38;5069895;28;20208;-45
2023/06/26 05:01:10;;;;;;;12.85;11.15;;;;;;;24.09;79.52;94429.53;5069723;28;20189;-45
2023/06/26 05:03:37;;;;;;;16.23;11.35;;;;;;;24.08;79.14;94426.13;5069391;28;20704;-44
2023/06/26 05:06:03;;;;;;;12.15;10.93;;;;;;;24.15;79.72;94437.25;5069280;28;20189;-45
2023/06/26 05:08:32;;;;;;;12.35;11.15;;;;;;;24.25;78.82;94434.84;5069926;28;20178;-45
2023/06/26 05:10:59;;;;;;;12.10;10.90;;;;;;;24.32;76.47;94439.19;5069115;28;20684;-48
2023/06/26 05:13:26;;;;;;;13.50;11.10;;;;;;;24.23;77.53;94442.16;5069190;28;20581;-45
2023/06/26 05:15:53;;;;;;;12.00;10.77;;;;;;;24.29;77.98;94443.84;5069280;28;20284;-45
2023/06/26 05:18:20;;;;;;;12.48;11.35;;;;;;;24.41;76.69;94449.09;5069401;28;20191;-45
2023/06/26 05:20:48;;;;;;;15.52;11.70;;;;;;;24.55;76.55;94444.41;5069088;28;20198;-46
2023/06/26 05:23:17;;;;;;;16.50;11.18;;;;;;;24.67;76.08;94442.56;5069136;28;20249;-45
2023/06/26 05:25:45;;;;;;;12.23;10.93;;;;;;;24.60;76.41;94422.78;5069391;28;20183;-44
2023/06/26 05:28:15;;;;;;;12.90;11.57;;;;;;;24.75;76.12;94455.28;5069372;28;20265;-47
2023/06/26 05:30:42;;;;;;;12.95;10.10;;;;;;;24.60;76.34;94449.72;5069704;28;20248;-45
2023/06/26 05:33:11;;;;;;;11.40;10.25;;;;;;;24.62;75.60;94458.16;5069157;28;20629;-45
2023/06/26 05:35:38;;;;;;;12.00;10.93;;;;;;;24.46;76.01;94456.25;5069159;28;20193;-45
2023/06/26 05:38:05;;;;;;;11.48;10.38;;;;;;;24.32;75.81;94457.50;5069385;28;20179;-45
2023/06/26 05:40:34;;;;;;;12.10;10.27;;;;;;;24.13;77.45;94464.63;5069360;28;20700;-45
2023/06/26 05:43:03;;;;;;;12.45;11.07;;;;;;;24.00;78.38;94465.66;5068868;28;20263;-47
2023/06/26 05:45:30;;;;;;;12.85;11.57;;;;;;;23.96;78.09;94454.06;5069222;28;20198;-46
2023/06/26 05:47:56;;;;;;;11.95;10.57;;;;;;;23.89;78.02;94462.03;5068907;28;20194;-47
2023/06/26 05:50:24;;;;;;;11.85;10.75;;;;;;;23.84;79.16;94458.50;5069104;28;20186;-45
2023/06/26 05:52:51;;;;;;;13.27;10.95;;;;;;;23.87;78.53;94453.59;5068783;28;20202;-46
2023/06/26 05:55:19;;;;;;;13.27;11.82;;;;;;;23.99;78.86;94461.44;5071211;28;20191;-45
2023/06/26 05:57:47;;;;;;;12.88;11.57;;;;;;;24.14;77.64;94464.41;5069228;28;20190;-47
2023/06/26 06:00:15;;;;;;;12.55;11.35;;;;;;;24.38;75.35;94460.00;5069248;28;20236;-46
2023/06/26 06:02:43;;;;;;;12.35;11.13;;;;;;;24.45;75.26;94457.28;5068600;28;20193;-44
2023/06/26 06:05:10;;;;;;;11.50;10.38;;;;;;;24.66;74.41;94472.38;5068970;28;20201;-46
2023/06/26 06:07:37;;;;;;;14.80;10.50;;;;;;;24.60;75.25;94433.25;5069351;28;20263;-46
2023/06/26 06:10:05;;;;;;;11.18;9.98;;;;;;;25.03;74.52;94469.41;5068890;28;20182;-45
2023/06/26 06:12:32;;;;;;;12.45;11.25;;;;;;;25.20;73.01;94470.28;5069017;28;20657;-45
2023/06/26 06:14:59;;;;;;;11.18;10.07;;;;;;;25.28;72.87;94462.06;5068620;28;20199;-48
2023/06/26 06:17:27;;;;;;;11.27;9.63;;;;;;;25.47;72.19;94460.03;5068760;28;20194;-45
2023/06/26 06:19:54;;;;;;;12.68;9.95;;;;;;;25.64;70.89;94465.28;5068554;28;20191;-45
2023/06/26 06:22:21;;;;;;;12.90;9.60;;;;;;;25.65;70.21;94466.09;5068806;28;20187;-45
2023/06/26 06:24:49;;;;;;;11.07;9.73;;;;;;;25.64;69.92;94462.66;5071778;28;20612;-45
2023/06/26 06:27:16;;;;;;;10.93;9.93;;;;;;;25.61;70.61;94462.38;5072319;28;20233;-45
2023/06/26 06:29:43;;;;;;;10.52;9.50;;;;;;;25.62;69.47;94456.88;5072021;28;20198;-46
2023/06/26 06:32:10;;;;;;;11.43;10.40;;;;;;;25.61;70.08;94457.13;5072209;28;20194;-46
2023/06/26 06:34:38;;;;;;;12.48;10.10;;;;;;;25.63;70.58;94460.28;5072108;28;20193;-47
2023/06/26 06:37:05;;;;;;;11.05;10.05;;;;;;;25.63;70.21;94449.81;5072547;28;20185;-45
2023/06/26 06:39:32;;;;;;;10.75;9.52;;;;;;;25.66;70.93;94451.97;5071985;28;20630;-44
2023/06/26 06:41:58;;;;;;;12.60;9.48;;;;;;;25.83;70.56;94449.38;5072231;28;20186;-45
2023/06/26 06:44:25;;;;;;;12.88;9.73;;;;;;;26.08;69.68;94455.03;5071908;28;20232;-46
2023/06/26 06:46:52;;;;;;;10.05;9.00;;;;;;;26.45;68.05;94450.06;5071901;28;20638;-47
2023/06/26 06:49:19;;;;;;;10.32;9.35;;;;;;;26.84;66.95;94457.88;5072205;28;20186;-45
2023/06/26 06:51:47;;;;;;;10.43;9.05;;;;;;;27.36;64.38;94454.00;5070401;28;20194;-44
2023/06/26 06:54:16;;;;;;;9.02;8.15;;;;;;;27.75;62.83;94463.31;5072390;28;20183;-46
2023/06/26 06:56:44;;;;;;;9.70;8.20;;;;;;;27.95;62.26;94446.13;5071681;28;20307;-47
2023/06/26 06:59:10;;;;;;;8.63;7.85;;;;;;;28.21;60.59;94453.16;5072465;28;20194;-45
2023/06/26 07:01:37;;;;;;;12.15;8.07;;;;;;;28.41;60.49;94451.69;5071846;28;20179;-46
2023/06/26 07:04:05;;;;;;;7.97;6.90;;;;;;;28.61;58.55;94451.03;5071902;28;20256;-47
2023/06/26 07:06:31;;;;;;;8.93;7.50;;;;;;;28.73;57.28;94454.25;5071788;28;20190;-46
2023/06/26 07:09:00;;;;;;;8.07;7.28;;;;;;;28.77;56.80;94444.78;5071806;28;20699;-46
2023/06/26 07:11:27;;;;;;;8.30;6.95;;;;;;;28.72;56.67;94456.09;5071383;28;20558;-47
2023/06/26 07:13:54;;;;;;;9.63;7.28;;;;;;;28.91;57.80;94453.00;5071718;28;20202;-46
2023/06/26 07:16:20;;;;;;;7.88;7.18;;;;;;;29.31;56.03;94449.72;5071285;28;20669;-46
2023/06/26 07:18:49;;;;;;;7.53;6.78;;;;;;;29.35;55.93;94452.63;5071590;28;20189;-45
2023/06/26 07:21:15;;;;;;;8.20;7.43;;;;;;;29.18;56.53;94451.00;5071602;28;20672;-45
2023/06/26 07:23:42;;;;;;;7.75;7.00;;;;;;;29.07;57.39;94449.41;5072136;28;20319;-47
2023/06/26 07:26:10;;;;;;;8.30;6.20;;;;;;;29.08;56.50;94442.28;5071135;28;20232;-45
2023/06/26 07:28:37;;;;;;;9.43;7.43;;;;;;;29.17;56.31;94448.63;5071314;28;20193;-46
2023/06/26 07:31:04;;;;;;;7.90;7.10;;;;;;;29.37;56.39;94450.53;5071366;28;20190;-46
2023/06/26 07:33:31;;;;;;;10.80;6.35;;;;;;;29.56;55.95;94446.34;5071090;28;20205;-46
2023/06/26 07:35:57;;;;;;;7.05;6.45;;;;;;;29.79;53.80;94447.69;5070276;28;20642;-46
2023/06/26 07:38:24;;;;;;;6.63;5.82;;;;;;;29.77;52.89;94441.09;5071237;28;20272;-47
2023/06/26 07:40:51;;;;;;;5.97;5.47;;;;;;;29.89;52.55;94446.91;5071105;28;20198;-46
2023/06/26 07:43:19;;;;;;;6.55;5.88;;;;;;;30.02;53.09;94442.94;5070806;28;20202;-46
2023/06/26 07:45:46;;;;;;;7.28;5.97;;;;;;;30.18;53.57;94441.88;5071093;28;20198;-46
2023/06/26 07:48:13;;;;;;;8.13;6.43;;;;;;;30.18;52.82;94440.06;5070947;28;20190;-49
2023/06/26 07:50:39;;;;;;;5.88;5.38;;;;;;;30.08;52.73;94453.22;5075518;28;20199;-46
2023/06/26 07:53:06;;;;;;;6.15;5.43;;;;;;;30.12;53.03;94453.47;5072458;28;20190;-46
2023/06/26 07:55:33;;;;;;;7.05;6.07;;;;;;;30.10;52.51;94452.97;5070849;28;20645;-46
2023/06/26 07:58:01;;;;;;;6.03;5.53;;;;;;;29.92;53.13;94451.63;5070757;28;20611;-45
2023/06/26 08:00:29;;;;;;;6.53;5.55;;;;;;;29.74;52.94;94456.38;5070738;28;20190;-46
2023/06/26 08:02:56;;;;;;;6.13;5.53;;;;;;;29.69;52.10;94451.09;5070728;28;20267;-45
2023/06/26 08:05:23;;;;;;;5.57;5.07;;;;;;;29.90;52.26;94451.13;5070616;28;20224;-46
2023/06/26 08:07:50;;;;;;;5.55;4.95;;;;;;;30.17;51.06;94456.13;5070800;28;20186;-46
2023/06/26 08:10:17;;;;;;;5.75;5.15;;;;;;;30.05;50.33;94452.94;5070329;28;20556;-47
2023/06/26 08:12:44;;;;;;;7.15;6.10;;;;;;;29.62;51.51;94452.41;5070477;28;20252;-48
2023/06/26 08:15:12;;;;;;;6.43;5.57;;;;;;;29.21;53.13;94431.25;5069992;28;20229;-45
2023/06/26 08:17:40;;;;;;;6.03;5.43;;;;;;;29.42;53.56;94450.53;5070432;28;20237;-48
2023/06/26 08:20:08;;;;;;;6.43;5.68;;;;;;;29.58;53.57;94446.91;5070183;28;20508;-47
2023/06/26 08:22:35;;;;;;;5.90;5.30;;;;;;;29.72;52.72;94440.03;5070426;28;20183;-47
2023/06/26 08:25:05;;;;;;;7.10;5.68;;;;;;;29.74;52.48;94458.22;5070013;28;20320;-46
2023/06/26 08:27:32;;;;;;;6.07;5.25;;;;;;;29.51;53.10;94451.59;5070570;28;20222;-46
2023/06/26 08:29:59;;;;;;;6.03;5.43;;;;;;;29.47;53.08;94448.69;5069953;28;20197;-46
2023/06/26 08:32:26;;;;;;;5.50;5.10;;;;;;;29.64;52.82;94455.59;5070364;28;20281;-46
2023/06/26 08:34:54;;;;;;;5.97;5.45;;;;;;;29.81;51.61;94444.78;5070364;28;20190;-46
2023/06/26 08:37:21;;;;;;;8.98;5.65;;;;;;;29.84;51.98;94452.19;5070557;28;20201;-45
2023/06/26 08:39:49;;;;;;;5.38;4.82;;;;;;;30.07;49.54;94451.63;5069112;28;20186;-47
2023/06/26 08:42:16;;;;;;;6.57;4.80;;;;;;;30.03;49.75;94445.31;5070272;28;20573;-46
2023/06/26 08:44:43;;;;;;;5.15;4.65;;;;;;;30.07;50.09;94448.22;5069921;28;20225;-45
2023/06/26 08:47:12;;;;;;;5.32;4.88;;;;;;;30.37;49.14;94447.41;5068290;28;20190;-46
2023/06/26 08:49:48;;;;;;;5.70;4.95;;;;;;;30.57;48.62;94447.34;5070043;28;20187;-45
2023/06/26 08:52:21;;;;;;;5.63;4.40;;;;;;;30.65;48.62;94457.34;5070460;28;20190;-55
2023/06/26 08:54:55;;;;;;;9.70;4.88;;;;;;;30.65;48.93;94448.63;5070545;28;20309;-46
2023/06/26 08:57:24;;;;;;;5.43;4.95;;;;;;;30.75;48.01;94440.72;5070121;28;20186;-45
2023/06/26 08:59:52;;;;;;;4.80;4.40;;;;;;;30.70;49.12;94446.78;5069402;28;20186;-47
2023/06/26 09:02:20;;;;;;;5.55;5.05;;;;;;;30.64;49.37;94453.13;5068614;28;20233;-45
2023/06/26 09:04:49;;;;;;;5.25;4.75;;;;;;;30.51;48.99;94447.63;5070454;28;20279;-46
2023/06/26 09:07:17;;;;;;;7.70;5.07;;;;;;;30.32;49.85;94457.97;5070028;28;20190;-46
2023/06/26 09:09:44;;;;;;;5.10;4.60;;;;;;;30.48;50.39;94449.75;5069707;28;20269;-46
2023/06/26 09:12:11;;;;;;;7.28;4.82;;;;;;;30.42;50.61;94444.75;5070080;28;20182;-46
2023/06/26 09:14:38;;;;;;;5.05;4.65;;;;;;;30.28;49.84;94447.16;5070407;28;20656;-46
2023/06/26 09:17:05;;;;;;;5.93;5.15;;;;;;;29.81;49.49;94416.56;5070467;28;20230;-44
2023/06/26 09:19:32;;;;;;;5.38;4.70;;;;;;;29.78;48.72;94446.09;5070577;28;20353;-45
2023/06/26 09:21:59;;;;;;;4.80;4.25;;;;;;;29.44;49.68;94453.69;5069854;28;20194;-44
2023/06/26 09:24:27;;;;;;;6.35;4.80;;;;;;;29.24;50.58;94449.97;5069503;28;20226;-45
2023/06/26 09:26:54;;;;;;;6.82;4.93;;;;;;;29.19;51.33;94444.69;5069398;28;20221;-47
2023/06/26 09:29:21;;;;;;;5.30;4.90;;;;;;;29.17;51.81;94452.06;5069489;28;20194;-47
2023/06/26 09:31:48;;;;;;;5.60;5.10;;;;;;;29.05;52.79;94411.97;5069731;28;20194;-46
2023/06/26 09:34:15;;;;;;;6.65;5.55;;;;;;;29.48;51.87;94436.28;5069214;28;20201;-45
2023/06/26 09:36:46;;;;;;;8.48;5.18;;;;;;;29.56;51.17;94435.81;5069545;28;20194;-46
2023/06/26 09:39:14;;;;;;;6.80;4.90;;;;;;;29.76;50.12;94445.59;5069020;28;20661;-44
2023/06/26 09:41:44;;;;;;;5.72;5.13;;;;;;;29.71;48.91;94445.59;5069437;28;20200;-45
2023/06/26 09:44:13;;;;;;;5.13;4.63;;;;;;;29.59;49.57;94443.19;5069079;28;20217;-45
2023/06/26 09:46:40;;;;;;;6.60;5.50;;;;;;;29.31;49.45;94420.72;5074324;28;20685;-45
2023/06/26 09:49:08;;;;;;;5.90;4.65;;;;;;;29.33;50.14;94439.72;5069218;28;20190;-46
2023/06/26 09:51:37;;;;;;;4.78;4.38;;;;;;;29.46;48.46;94441.84;5069621;28;20179;-45
2023/06/26 09:54:05;;;;;;;6.35;4.30;;;;;;;29.30;47.79;94423.63;5068878;28;20205;-45
2023/06/26 09:56:32;;;;;;;4.40;4.00;;;;;;;29.25;48.93;94432.31;5069529;28;20190;-45
2023/06/26 09:59:02;;;;;;;5.30;4.60;;;;;;;29.25;48.69;94438.38;5070897;28;20196;-45
2023/06/26 10:01:29;;;;;;;5.60;4.53;;;;;;;29.45;49.09;94439.47;5073484;28;20202;-45
2023/06/26 10:03:57;;;;;;;5.90;4.55;;;;;;;29.55;49.13;94441.31;5072673;28;20194;-44
2023/06/26 10:06:29;;;;;;;5.88;4.97;;;;;;;29.77;48.92;94423.44;5072993;28;20244;-47
2023/06/26 10:08:59;;;;;;;6.00;4.75;;;;;;;30.00;46.90;94430.78;5072678;28;20653;-46
2023/06/26 10:11:28;;;;;;;5.18;4.68;;;;;;;30.01;46.10;94434.25;5072733;28;20200;-46
2023/06/26 10:13:57;;;;;;;5.15;4.47;;;;;;;29.96;46.37;94431.59;5072622;28;20194;-45
2023/06/26 10:16:29;;;;;;;6.05;4.90;;;;;;;30.10;48.29;94422.09;5073056;28;20270;-46
2023/06/26 10:19:02;;;;;;;5.15;4.65;;;;;;;30.31;47.10;94424.69;5073743;28;20209;-46
2023/06/26 10:21:30;;;;;;;6.05;5.20;;;;;;;30.45;47.61;94423.88;5072823;28;20202;-46
2023/06/26 10:23:58;;;;;;;4.97;4.47;;;;;;;30.51;46.09;94434.44;5072486;28;20194;-46
2023/06/26 10:26:25;;;;;;;6.03;4.38;;;;;;;30.24;46.93;94438.19;5072689;28;20226;-45
2023/06/26 10:28:55;;;;;;;4.80;4.30;;;;;;;29.91;46.76;94399.94;5072353;28;20186;-45
2023/06/26 10:31:27;;;;;;;7.43;4.95;;;;;;;29.90;47.14;94433.44;5072422;28;20191;-45
2023/06/26 10:33:56;;;;;;;5.38;4.88;;;;;;;29.77;46.03;94420.81;5072280;28;20712;-44
2023/06/26 10:36:29;;;;;;;7.20;4.65;;;;;;;29.39;45.84;94436.03;5072707;28;20261;-48
2023/06/26 10:38:58;;;;;;;5.53;4.90;;;;;;;29.02;47.12;94428.31;5072326;28;20182;-46
2023/06/26 10:41:26;;;;;;;5.65;4.97;;;;;;;28.88;47.84;94432.44;5072223;28;20194;-45
2023/06/26 10:44:08;;;;;;;5.68;4.70;;;;;;;28.85;47.78;94425.88;5072034;28;20178;-45
2023/06/26 10:46:35;;;;;;;8.43;4.90;;;;;;;28.75;48.52;94428.44;5072443;28;20277;-46
2023/06/26 10:49:03;;;;;;;6.95;4.72;;;;;;;28.57;48.68;94408.63;5072239;28;20217;-47
2023/06/26 10:51:30;;;;;;;6.50;5.22;;;;;;;28.77;48.65;94431.63;5071809;28;20201;-46
2023/06/26 10:53:58;;;;;;;4.97;4.50;;;;;;;28.82;49.03;94428.22;5072255;28;20206;-46
2023/06/26 10:56:43;;;;;;;6.38;5.32;;;;;;;28.80;49.17;94419.78;5072338;28;20198;-46
2023/06/26 10:59:18;;;;;;;6.65;6.00;;;;;;;28.87;49.93;94423.75;5071876;28;20730;-46
2023/06/26 11:01:47;;;;;;;6.50;5.22;;;;;;;28.93;50.12;94420.09;5071851;28;20262;-44
2023/06/26 11:04:18;;;;;;;6.75;5.90;;;;;;;29.12;49.40;94412.53;5071572;28;20198;-46
2023/06/26 11:06:49;;;;;;;8.27;5.38;;;;;;;29.10;47.97;94419.91;5072132;28;20248;-45
2023/06/26 11:09:25;;;;;;;6.07;4.93;;;;;;;28.98;48.58;94417.50;5071187;28;20217;-46
2023/06/26 11:12:01;;;;;;;5.53;4.95;;;;;;;29.05;48.22;94408.56;5071773;28;20194;-47
2023/06/26 11:14:28;;;;;;;5.88;5.38;;;;;;;28.96;47.95;94411.69;5071304;28;20735;-47
2023/06/26 11:16:57;;;;;;;5.45;4.95;;;;;;;28.77;48.28;94418.47;5071646;28;20183;-45
2023/06/26 11:19:28;;;;;;;5.63;5.13;;;;;;;28.67;48.76;94426.31;5071170;28;20284;-45
2023/06/26 11:22:00;;;;;;;6.78;4.65;;;;;;;28.54;49.19;94411.81;5071334;28;20277;-46
2023/06/26 11:24:27;;;;;;;7.78;4.85;;;;;;;28.45;49.19;94415.94;5071356;28;20273;-45
2023/06/26 11:26:54;;;;;;;5.60;4.93;;;;;;;28.36;48.85;94404.31;5071654;28;20704;-46